createdAt,value
2022-09-27T00:00:23.675Z,99921.92
2022-09-27T00:03:29.573Z,99925.33
2022-09-27T00:06:41.746Z,99917.08
2022-09-27T00:09:48.296Z,99913.59
2022-09-27T00:12:55.330Z,99912.73
2022-09-27T00:16:02.177Z,99917.72
2022-09-27T00:19:08.158Z,99915.28
2022-09-27T00:22:14.070Z,99918.55
2022-09-27T00:25:23.191Z,99910.50
2022-09-27T00:28:28.309Z,99907.75
2022-09-27T00:31:38.040Z,99903.63
2022-09-27T00:34:45.093Z,99890.94
2022-09-27T00:37:51.656Z,99893.48
2022-09-27T00:40:57.766Z,99892.11
2022-09-27T00:44:15.949Z,99896.23
2022-09-27T00:47:49.232Z,99887.47
2022-09-27T00:50:57.910Z,99878.66
2022-09-27T00:54:06.729Z,99871.06
2022-09-27T00:57:11.969Z,99863.87
2022-09-27T01:00:24.250Z,99857.52
2022-09-27T01:03:37.659Z,99855.28
2022-09-27T01:06:45.819Z,99859.95
2022-09-27T01:09:50.946Z,99858.89
2022-09-27T01:13:34.845Z,99850.95
2022-09-27T01:16:47.691Z,99850.22
2022-09-27T01:20:33.251Z,99849.18
2022-09-27T01:23:50.535Z,99841.75
2022-09-27T01:27:11.903Z,99829.71
2022-09-27T01:30:24.589Z,99819.02
2022-09-27T01:33:55.233Z,99824.30
2022-09-27T01:37:15.237Z,99813.82
2022-09-27T01:40:25.280Z,99819.66
2022-09-27T01:43:47.191Z,99818.59
2022-09-27T01:47:01.295Z,99826.63
2022-09-27T01:50:23.744Z,99823.67
2022-09-27T01:53:36.984Z,99823.46
2022-09-27T01:57:04.326Z,99812.80
2022-09-27T02:00:17.670Z,99810.66
2022-09-27T02:03:29.364Z,99816.50
2022-09-27T02:06:58.734Z,99799.22
2022-09-27T02:10:12.544Z,99798.48
2022-09-27T02:13:47.615Z,99790.88
2022-09-27T02:17:39.930Z,99792.56
2022-09-27T02:20:54.545Z,99784.09
2022-09-27T02:24:08.401Z,99777.00
2022-09-27T02:27:28.294Z,99766.84
2022-09-27T02:30:37.125Z,99755.41
2022-09-27T02:34:14.411Z,99755.53
2022-09-27T02:37:20.709Z,99743.23
2022-09-27T02:40:26.613Z,99745.25
2022-09-27T02:43:33.605Z,99740.70
2022-09-27T02:46:54.358Z,99744.91
2022-09-27T02:50:12.496Z,99739.41
2022-09-27T02:53:40.436Z,99749.98
2022-09-27T02:57:35.668Z,99736.56
2022-09-27T03:01:19.739Z,99743.74
2022-09-27T03:04:55.049Z,99741.63
2022-09-27T03:08:02.059Z,99735.57
2022-09-27T03:11:09.049Z,99732.81
2022-09-27T03:14:15.763Z,99727.13
2022-09-27T03:17:33.035Z,99725.75
2022-09-27T03:20:57.010Z,99726.61
2022-09-27T03:24:03.609Z,99724.50
2022-09-27T03:27:10.098Z,99721.74
2022-09-27T03:30:15.637Z,99721.52
2022-09-27T03:33:21.721Z,99721.00
2022-09-27T03:36:28.693Z,99716.32
2022-09-27T03:39:34.384Z,99709.77
2022-09-27T03:42:40.791Z,99716.44
2022-09-27T03:45:46.642Z,99715.36
2022-09-27T03:48:52.819Z,99718.45
2022-09-27T03:51:59.837Z,99714.11
2022-09-27T03:55:04.594Z,99711.66
2022-09-27T03:58:09.987Z,99713.97
2022-09-27T04:01:15.307Z,99711.22
2022-09-27T04:04:23.086Z,99720.12
2022-09-27T04:07:30.391Z,99724.89
2022-09-27T04:10:37.828Z,99727.94
2022-09-27T04:13:45.722Z,99722.73
2022-09-27T04:16:52.034Z,99723.08
2022-09-27T04:20:07.048Z,99732.58
2022-09-27T04:23:13.628Z,99744.45
2022-09-27T04:26:21.991Z,99741.70
2022-09-27T04:29:33.022Z,99756.41
2022-09-27T04:32:43.152Z,99760.84
2022-09-27T04:36:16.709Z,99761.70
2022-09-27T04:39:25.597Z,99759.25
2022-09-27T04:42:30.909Z,99746.64
2022-09-27T04:45:36.571Z,99753.52
2022-09-27T04:48:43.071Z,99746.41
2022-09-27T04:51:49.119Z,99745.67
2022-09-27T04:54:57.334Z,99752.86
2022-09-27T04:58:03.918Z,99754.58
2022-09-27T05:01:12.041Z,99748.33
2022-09-27T05:04:34.731Z,99750.95
2022-09-27T05:07:42.314Z,99746.38
2022-09-27T05:10:50.241Z,99750.07
2022-09-27T05:13:58.094Z,99754.62
2022-09-27T05:17:06.554Z,99755.89
2022-09-27T05:20:22.306Z,99754.08
2022-09-27T05:23:33.027Z,99757.77
2022-09-27T05:26:38.816Z,99745.45
2022-09-27T05:29:46.456Z,99750.85
2022-09-27T05:32:58.196Z,99750.41
2022-09-27T05:36:18.819Z,99755.15
2022-09-27T05:39:25.502Z,99760.77
2022-09-27T05:42:25.115Z,99771.05
2022-09-27T05:45:12.158Z,99762.23
2022-09-27T05:48:06.547Z,99765.10
2022-09-27T05:51:17.218Z,99759.36
2022-09-27T05:54:23.799Z,99749.50
2022-09-27T05:57:30.474Z,99755.09
2022-09-27T06:00:38.285Z,99750.51
2022-09-27T06:03:58.325Z,99742.57
2022-09-27T06:07:20.751Z,99737.98
2022-09-27T06:10:26.041Z,99738.92
2022-09-27T06:13:34.367Z,99734.56
2022-09-27T06:16:44.974Z,99735.42
2022-09-27T06:19:50.705Z,99736.57
2022-09-27T06:22:56.411Z,99730.83
2022-09-27T06:26:07.838Z,99729.01
2022-09-27T06:29:35.250Z,99731.24
2022-09-27T06:32:45.765Z,99733.44
2022-09-27T06:35:53.460Z,99729.64
2022-09-27T06:38:59.897Z,99737.91
2022-09-27T06:42:09.636Z,99735.45
2022-09-27T06:45:34.375Z,99731.61
2022-09-27T06:48:55.615Z,99730.67
2022-09-27T06:52:04.008Z,99728.63
2022-09-27T06:55:09.804Z,99728.95
2022-09-27T06:58:34.319Z,99738.05
2022-09-27T07:01:45.988Z,99738.61
2022-09-27T07:05:03.205Z,99745.40
2022-09-27T07:08:12.412Z,99748.16
2022-09-27T07:11:22.574Z,99743.50
2022-09-27T07:14:33.091Z,99738.61
2022-09-27T07:17:47.027Z,99740.59
2022-09-27T07:20:56.865Z,99735.63
2022-09-27T07:24:07.280Z,99733.69
2022-09-27T07:27:16.166Z,99727.13
2022-09-27T07:30:25.193Z,99710.35
2022-09-27T07:33:33.171Z,99709.38
2022-09-27T07:36:41.200Z,99707.84
2022-09-27T07:39:48.233Z,99701.35
2022-09-27T07:42:57.357Z,99698.99
2022-09-27T07:46:03.805Z,99700.22
2022-09-27T07:49:11.450Z,99699.77
2022-09-27T07:52:35.203Z,99702.92
2022-09-27T07:56:06.609Z,99691.73
2022-09-27T07:59:12.563Z,99691.77
2022-09-27T08:02:20.522Z,99682.98
2022-09-27T08:05:27.197Z,99681.44
2022-09-27T08:08:34.426Z,99686.06
2022-09-27T08:11:44.065Z,99683.06
2022-09-27T08:14:51.365Z,99683.63
2022-09-27T08:18:00.887Z,99682.42
2022-09-27T08:21:22.473Z,99677.82
2022-09-27T08:24:38.650Z,99665.85
2022-09-27T08:27:50.594Z,99661.70
2022-09-27T08:30:59.241Z,99660.00
2022-09-27T08:34:06.035Z,99655.99
2022-09-27T08:37:12.896Z,99652.31
2022-09-27T08:40:21.695Z,99654.62
2022-09-27T08:43:44.733Z,99647.86
2022-09-27T08:47:22.700Z,99658.84
2022-09-27T08:50:42.509Z,99644.88
2022-09-27T08:54:03.382Z,99651.09
2022-09-27T08:57:11.549Z,99642.64
2022-09-27T09:00:24.500Z,99638.20
2022-09-27T09:03:34.518Z,99633.67
2022-09-27T09:06:57.378Z,99635.81
2022-09-27T09:10:26.913Z,99653.76
2022-09-27T09:13:51.793Z,99659.52
2022-09-27T09:17:20.955Z,99654.75
2022-09-27T09:21:06.195Z,99658.30
2022-09-27T09:24:20.512Z,99657.67
2022-09-27T09:27:51.939Z,99648.83
2022-09-27T09:31:08.944Z,99637.27
2022-09-27T09:34:23.283Z,99636.11
2022-09-27T09:37:39.091Z,99643.41
2022-09-27T09:40:59.278Z,99637.16
2022-09-27T09:44:21.353Z,99642.91
2022-09-27T09:47:42.796Z,99653.36
2022-09-27T09:50:57.827Z,99653.36
2022-09-27T09:54:15.750Z,99644.75
2022-09-27T09:57:32.092Z,99640.61
2022-09-27T10:00:33.069Z,99636.57
2022-09-27T10:03:41.254Z,99632.89
2022-09-27T10:07:16.283Z,99632.36
2022-09-27T10:10:29.859Z,99625.39
2022-09-27T10:13:51.375Z,99622.85
2022-09-27T10:17:01.657Z,99621.92
2022-09-27T10:20:08.200Z,99612.12
2022-09-27T10:23:24.074Z,99616.27
2022-09-27T10:26:34.044Z,99607.66
2022-09-27T10:29:51.276Z,99609.66
2022-09-27T10:32:58.223Z,99606.89
2022-09-27T10:36:16.784Z,99594.52
2022-09-27T10:39:25.450Z,99583.27
2022-09-27T10:42:52.603Z,99586.33
2022-09-27T10:46:02.631Z,99573.90
2022-09-27T10:49:26.155Z,99571.75
2022-09-27T10:52:39.527Z,99562.38
2022-09-27T10:55:50.461Z,99564.52
2022-09-27T10:59:01.176Z,99561.47
2022-09-27T11:02:06.881Z,99564.08
2022-09-27T11:05:43.309Z,99554.13
2022-09-27T11:08:49.658Z,99548.21
2022-09-27T11:11:57.344Z,99542.02
2022-09-27T11:15:13.732Z,99539.86
2022-09-27T11:18:26.286Z,99534.74
2022-09-27T11:21:48.954Z,99533.27
2022-09-27T11:25:17.414Z,99534.06
2022-09-27T11:28:31.300Z,99528.54
2022-09-27T11:32:09.645Z,99515.17
2022-09-27T11:35:45.400Z,99511.49
2022-09-27T11:39:18.311Z,99508.05
2022-09-27T11:42:31.183Z,99489.59
2022-09-27T11:46:14.377Z,99483.42
2022-09-27T11:49:23.053Z,99483.20
2022-09-27T11:52:42.995Z,99473.73
2022-09-27T11:55:55.547Z,99478.88
2022-09-27T11:59:38.685Z,99471.18
2022-09-27T12:03:08.027Z,99475.55
2022-09-27T12:06:23.365Z,99467.23
2022-09-27T12:09:42.974Z,99465.17
2022-09-27T12:12:53.294Z,99459.31
2022-09-27T12:16:00.316Z,99445.98
2022-09-27T12:19:09.373Z,99436.17
2022-09-27T12:22:40.217Z,99427.22
2022-09-27T12:25:32.326Z,99429.13
2022-09-27T12:29:06.985Z,99420.46
2022-09-27T12:32:48.685Z,99416.80
2022-09-27T12:36:04.587Z,99417.56
2022-09-27T12:39:20.521Z,99416.98
2022-09-27T12:42:36.795Z,99409.14
2022-09-27T12:46:19.335Z,99412.70
2022-09-27T12:49:31.651Z,99395.98
2022-09-27T12:52:39.858Z,99393.09
2022-09-27T12:56:07.530Z,99387.56
2022-09-27T12:59:43.592Z,99390.61
2022-09-27T13:03:15.687Z,99388.95
2022-09-27T13:06:24.916Z,99379.75
2022-09-27T13:09:46.239Z,99368.42
2022-09-27T13:12:52.972Z,99363.34
2022-09-27T13:16:00.419Z,99364.72
2022-09-27T13:19:14.245Z,99352.01
2022-09-27T13:22:24.856Z,99349.72
2022-09-27T13:26:11.110Z,99351.58
2022-09-27T13:29:20.300Z,99347.34
2022-09-27T13:32:32.842Z,99335.11
2022-09-27T13:35:40.891Z,99333.12
2022-09-27T13:38:57.472Z,99333.97
2022-09-27T13:42:11.166Z,99336.44
2022-09-27T13:45:42.527Z,99330.06
2022-09-27T13:49:13.554Z,99334.20
2022-09-27T13:52:43.748Z,99335.30
2022-09-27T13:56:05.690Z,99331.45
2022-09-27T13:59:16.593Z,99331.50
2022-09-27T14:02:46.134Z,99339.55
2022-09-27T14:05:55.647Z,99328.83
2022-09-27T14:09:12.429Z,99328.88
2022-09-27T14:12:25.707Z,99325.64
2022-09-27T14:15:39.272Z,99319.30
2022-09-27T14:18:50.239Z,99314.92
2022-09-27T14:22:30.761Z,99309.41
2022-09-27T14:25:39.358Z,99304.18
2022-09-27T14:28:55.465Z,99302.80
2022-09-27T14:32:05.772Z,99296.19
2022-09-27T14:35:45.415Z,99287.38
2022-09-27T14:38:53.331Z,99283.00
2022-09-27T14:42:01.291Z,99280.84
2022-09-27T14:45:15.833Z,99273.95
2022-09-27T14:48:42.357Z,99269.04
2022-09-27T14:51:47.565Z,99265.72
2022-09-27T14:54:54.314Z,99265.80
2022-09-27T14:58:35.975Z,99254.20
2022-09-27T15:01:34.059Z,99254.52
2022-09-27T15:04:40.949Z,99254.52
2022-09-27T15:07:48.972Z,99257.04
2022-09-27T15:10:57.084Z,99247.91
2022-09-27T15:14:07.400Z,99242.38
2022-09-27T15:17:13.403Z,99255.09
2022-09-27T15:20:37.066Z,99245.75
2022-09-27T15:23:47.969Z,99240.23
2022-09-27T15:27:00.367Z,99239.37
2022-09-27T15:30:11.141Z,99230.25
2022-09-27T15:33:16.869Z,99238.85
2022-09-27T15:36:26.430Z,99233.57
2022-09-27T15:39:41.279Z,99230.49
2022-09-27T15:42:48.815Z,99234.05
2022-09-27T15:45:56.778Z,99228.21
2022-09-27T15:49:01.497Z,99219.64
2022-09-27T15:52:09.067Z,99219.64
2022-09-27T15:55:17.398Z,99220.73
2022-09-27T15:58:32.274Z,99209.13
2022-09-27T16:01:37.709Z,99213.83
2022-09-27T16:04:43.355Z,99206.61
2022-09-27T16:07:49.245Z,99205.76
2022-09-27T16:11:02.548Z,99205.76
2022-09-27T16:14:08.214Z,99207.38
2022-09-27T16:17:14.486Z,99212.08
2022-09-27T16:20:21.429Z,99210.94
2022-09-27T16:23:27.390Z,99206.80
2022-09-27T16:26:33.350Z,99198.20
2022-09-27T16:29:44.171Z,99192.92
2022-09-27T16:32:48.433Z,99198.92
2022-09-27T16:35:56.159Z,99206.35
2022-09-27T16:39:05.763Z,99212.11
2022-09-27T16:42:14.754Z,99218.72
2022-09-27T16:45:23.587Z,99217.34
2022-09-27T16:48:31.557Z,99220.34
2022-09-27T16:51:55.757Z,99209.25
2022-09-27T16:55:01.286Z,99212.02
2022-09-27T16:58:07.653Z,99221.34
2022-09-27T17:01:15.133Z,99215.54
2022-09-27T17:04:24.950Z,99216.92
2022-09-27T17:07:33.004Z,99211.11
2022-09-27T17:10:38.177Z,99212.25
2022-09-27T17:13:45.455Z,99209.78
2022-09-27T17:16:52.888Z,99210.31
2022-09-27T17:19:59.746Z,99198.73
2022-09-27T17:23:08.233Z,99201.50
2022-09-27T17:26:23.193Z,99199.27
2022-09-27T17:29:28.859Z,99187.94
2022-09-27T17:32:35.869Z,99187.09
2022-09-27T17:35:42.244Z,99188.18
2022-09-27T17:38:48.375Z,99191.47
2022-09-27T17:41:55.611Z,99199.98
2022-09-27T17:45:00.644Z,99207.73
2022-09-27T17:48:24.424Z,99211.31
2022-09-27T17:51:29.866Z,99214.40
2022-09-27T17:54:38.432Z,99210.26
2022-09-27T17:57:45.890Z,99213.63
2022-09-27T18:00:51.860Z,99204.50
2022-09-27T18:03:58.063Z,99205.64
2022-09-27T18:07:04.865Z,99202.88
2022-09-27T18:10:11.273Z,99226.09
2022-09-27T18:13:21.444Z,99224.19
2022-09-27T18:16:33.794Z,99219.20
2022-09-27T18:19:40.871Z,99212.83
2022-09-27T18:22:48.157Z,99199.03
2022-09-27T18:25:56.697Z,99200.97
2022-09-27T18:29:01.860Z,99203.97
2022-09-27T18:32:10.514Z,99193.98
2022-09-27T18:35:17.293Z,99193.17
2022-09-27T18:38:24.714Z,99186.80
2022-09-27T18:41:32.396Z,99188.47
2022-09-27T18:44:39.080Z,99186.27
2022-09-27T18:47:49.450Z,99179.91
2022-09-27T18:50:57.055Z,99183.52
2022-09-27T18:54:03.735Z,99179.58
2022-09-27T18:57:12.571Z,99177.67
2022-09-27T19:00:21.251Z,99179.05
2022-09-27T19:03:31.041Z,99170.78
2022-09-27T19:06:40.004Z,99180.44
2022-09-27T19:09:46.797Z,99176.30
2022-09-27T19:12:55.454Z,99174.06
2022-09-27T19:16:12.057Z,99169.92
2022-09-27T19:19:19.774Z,99174.06
2022-09-27T19:22:28.701Z,99168.26
2022-09-27T19:25:34.647Z,99174.62
2022-09-27T19:28:42.043Z,99170.48
2022-09-27T19:31:48.898Z,99166.88
2022-09-27T19:34:56.673Z,99170.78
2022-09-27T19:38:03.064Z,99169.92
2022-09-27T19:41:09.975Z,99161.12
2022-09-27T19:44:16.968Z,99169.72
2022-09-27T19:47:24.326Z,99167.48
2022-09-27T19:50:30.404Z,99163.88
2022-09-27T19:53:36.047Z,99176.05
2022-09-27T19:56:42.538Z,99173.30
2022-09-27T19:59:49.702Z,99165.02
2022-09-27T20:02:56.191Z,99166.95
2022-09-27T20:06:10.966Z,99166.39
2022-09-27T20:09:16.263Z,99159.73
2022-09-27T20:12:22.958Z,99161.12
2022-09-27T20:15:28.821Z,99153.37
2022-09-27T20:18:34.528Z,99159.98
2022-09-27T20:21:46.692Z,99162.50
2022-09-27T20:24:52.838Z,99163.34
2022-09-27T20:27:59.481Z,99166.64
2022-09-27T20:31:17.896Z,99169.92
2022-09-27T20:34:30.434Z,99162.45
2022-09-27T20:37:37.470Z,99156.03
2022-09-27T20:40:44.021Z,99160.70
2022-09-27T20:43:50.316Z,99162.03
2022-09-27T20:46:55.642Z,99166.17
2022-09-27T20:50:01.098Z,99166.94
2022-09-27T20:53:07.878Z,99161.42
2022-09-27T20:56:14.245Z,99156.43
2022-09-27T20:59:23.335Z,99154.52
2022-09-27T21:02:31.221Z,99145.11
2022-09-27T21:05:36.113Z,99150.06
2022-09-27T21:08:44.070Z,99157.52
2022-09-27T21:11:48.699Z,99144.25
2022-09-27T21:14:55.613Z,99144.55
2022-09-27T21:18:04.614Z,99144.55
2022-09-27T21:21:24.045Z,99152.53
2022-09-27T21:24:31.593Z,99149.25
2022-09-27T21:27:37.900Z,99142.64
2022-09-27T21:30:44.545Z,99139.02
2022-09-27T21:33:51.557Z,99143.73
2022-09-27T21:36:57.968Z,99142.88
2022-09-27T21:40:04.833Z,99141.20
2022-09-27T21:43:10.808Z,99135.69
2022-09-27T21:46:21.488Z,99138.45
2022-09-27T21:49:26.085Z,99142.27
2022-09-27T21:52:32.696Z,99153.30
2022-09-27T21:55:38.666Z,99151.88
2022-09-27T21:58:49.164Z,99147.13
2022-09-27T22:01:56.421Z,99142.70
2022-09-27T22:05:02.686Z,99146.22
2022-09-27T22:08:11.047Z,99152.22
2022-09-27T22:11:17.437Z,99153.22
2022-09-27T22:14:23.841Z,99139.63
2022-09-27T22:17:28.724Z,99140.10
2022-09-27T22:20:34.188Z,99140.70
2022-09-27T22:23:40.551Z,99137.20
2022-09-27T22:26:50.453Z,99142.47
2022-09-27T22:29:56.787Z,99145.03
2022-09-27T22:33:02.673Z,99143.98
2022-09-27T22:36:08.645Z,99145.80
2022-09-27T22:39:15.684Z,99151.78
2022-09-27T22:42:21.898Z,99151.20
2022-09-27T22:45:27.467Z,99158.85
2022-09-27T22:48:33.539Z,99157.62
2022-09-27T22:51:39.075Z,99160.78
2022-09-27T22:54:44.563Z,99159.27
2022-09-27T22:57:49.912Z,99158.64
2022-09-27T23:00:55.616Z,99169.66
2022-09-27T23:04:04.442Z,99167.94
2022-09-27T23:07:12.511Z,99166.47
2022-09-27T23:10:19.075Z,99167.23
2022-09-27T23:13:25.584Z,99167.92
2022-09-27T23:16:37.444Z,99165.64
2022-09-27T23:19:44.692Z,99171.55
2022-09-27T23:22:49.982Z,99164.42
2022-09-27T23:25:55.965Z,99160.83
2022-09-27T23:29:01.379Z,99155.63
2022-09-27T23:32:08.498Z,99155.80
2022-09-27T23:35:15.563Z,99157.44
2022-09-27T23:38:22.868Z,99149.02
2022-09-27T23:41:29.525Z,99149.81
2022-09-27T23:44:37.687Z,99148.34
2022-09-27T23:47:46.594Z,99148.50
2022-09-27T23:50:52.965Z,99139.47
2022-09-27T23:53:58.066Z,99146.28
2022-09-27T23:57:03.154Z,99141.66
